Aérodrome :
LOGIN :

S'inscrire | Disclaimer

   EN    FR    IT 

 










Légende :    VFR   VFR Marginal   IFR   IFR Intensif   IFR Très Intensif
Visi : 
Plafond : 
>= 8 km
>= 3000ft
5 à 8 km
1000 à 3000 ft
1500m à 5 km
500 à 1000 ft
800 à 1500m
200 à 500 ft
< 800m
< 200 ft
Symboles :   Orages  Brouillard  Fortes neiges  Fortes précipitations  Vent > 20 kt
SIGMETs :   Divers  Orages  Givrage  Turbulence  Onde Orograph.  Cendres Volcan.






- Altitude de l'aérodrome : 464 ft
- Code IATA : EVX


LFOE - Evreux

DERNIER METAR :
  • 251000Z AUTO 25005KT 220V290 9999 BKN009 BKN014 OVC019 17/14 Q1019 BECMG 4000 -RA OVC020

METARs EXPIRÉS :
  • 250930Z AUTO 27005KT 230V320 9999 OVC007 16/15 Q1020 BECMG 4000 -RA OVC020
  • 250900Z AUTO 24004KT 200V280 9999 OVC007 15/14 Q1020 NOSIG
  • 250830Z AUTO 21005KT 9999 OVC007 15/14 Q1020 NOSIG
  • 250800Z AUTO 21006KT 7000 BKN010 OVC014 14/13 Q1020 TEMPO 4000 -RADZ
  • 250730Z AUTO 21006KT 8000 BKN012 OVC018 14/12 Q1020 TEMPO 4000 -RADZ

TAF TAF LFOE
Valide du 25 à 09h jusqu'au 26 à 09h UTC


250800Z 2509/2609 22007KT 8000 OVC012
TEMPO 2509/2511 -RADZ OVC008
BECMG 2511/2512 4000 -RA OVC020
TEMPO 2511/2517 30010KT
TEMPO 2515/2523 4000 -SHRA BKN020TCU
BECMG 2602/2604 OVC004
BECMG 2606/2608 8000 NSW



MET'MAP, la Météo Aéronautique d'un coup d'oeil ! - Copyright ORBIFLY Décembre 2007 - Disclaimer

ORBIFLY MET'MAP TEAM :

Programmation & Développement : Alexandra Zaïnal
Sur une idée originale de : Baudouin d'Aumeries
Assistance à la programmation : Marc-Olivier Méhu
Soutien technique & logistique : Manuel Goepfert

Contact : metmap@orbifly.com




SOURCES & CREDITS :

   NOAA